Terminal Aerodrome Forecast
Issued by NWS

Home | Current Version | Previous Version | Graphics & Text | Print | Product List | Glossary On
Versions: 1 2 3 4 5 6 7 8 9 10 11 12 13 14 15 16
092
FTUS43 KMPX 261129
TAFRNH
TAF
KRNH 261129Z 2612/2712 15007KT P6SM BKN070
     FM261600 19007KT P6SM SCT045 SCT150
     FM262000 22007KT P6SM SCT045 PROB30 2622/2702 -TSRA BKN040CB
     FM270200 25003KT P6SM SKC=

USA.gov is the U.S. government's official web portal to all federal, state and local government web resources and services.